Time;durP1;ratioP1;P1;durP2;ratioP2;P2;SDS_P1;SDS_P2;PMS_P1;PMS_P2;Temp;Humidity;BMP_temperature;BMP_pressure;BME280_temperature;BME280_humidity;BME280_pressure;Samples;Min_cycle;Max_cycle;Signal;HPM_P1;HPM_P2
2021/05/16 00:00:09;;;;;;;2.10;1.87;;;;;;;10.01;85.56;99058.47;5083240;28;20262;-75
2021/05/16 00:02:36;;;;;;;1.70;1.60;;;;;;;10.00;85.97;99055.91;5082829;28;20249;-74
2021/05/16 00:05:01;;;;;;;1.70;1.60;;;;;;;10.01;85.83;99054.97;5082790;28;20740;-77
2021/05/16 00:07:27;;;;;;;1.87;1.77;;;;;;;9.99;86.17;99062.00;5083027;28;20211;-77
2021/05/16 00:09:53;;;;;;;2.57;2.10;;;;;;;10.01;85.96;99065.41;5082911;28;20272;-76
2021/05/16 00:12:19;;;;;;;1.90;1.80;;;;;;;10.00;86.41;99061.13;5083380;28;20207;-75
2021/05/16 00:14:45;;;;;;;2.70;1.60;;;;;;;9.97;86.62;99064.72;5082436;28;20210;-76
2021/05/16 00:17:11;;;;;;;2.00;1.53;;;;;;;9.97;86.26;99059.50;5083769;28;20679;-76
2021/05/16 00:19:38;;;;;;;1.87;1.70;;;;;;;9.88;86.08;99057.22;5082178;28;20270;-77
2021/05/16 00:22:04;;;;;;;2.23;1.70;;;;;;;9.94;85.91;99052.63;5083141;28;20210;-76
2021/05/16 00:24:30;;;;;;;2.03;1.80;;;;;;;9.87;85.82;99056.38;5083009;28;20279;-76
2021/05/16 00:26:56;;;;;;;2.97;1.80;;;;;;;9.87;86.10;99048.56;5082918;28;20207;-76
2021/05/16 00:29:23;;;;;;;1.90;1.77;;;;;;;9.90;86.08;99045.00;5083073;28;21133;-76
2021/05/16 00:31:48;;;;;;;2.87;1.77;;;;;;;9.89;85.56;99048.50;5082672;28;20213;-77
2021/05/16 00:34:14;;;;;;;1.60;1.50;;;;;;;9.85;85.75;99050.38;5081887;28;20256;-77
2021/05/16 00:36:41;;;;;;;2.27;2.00;;;;;;;9.82;86.34;99053.09;5083394;28;20204;-77
2021/05/16 00:39:07;;;;;;;2.00;1.90;;;;;;;9.87;86.08;99051.19;5082657;28;20275;-76
2021/05/16 00:41:33;;;;;;;3.03;2.20;;;;;;;9.85;85.87;99052.13;5083070;28;20237;-75
2021/05/16 00:43:59;;;;;;;2.80;1.90;;;;;;;9.85;85.89;99054.72;5082182;28;20204;-75
2021/05/16 00:46:25;;;;;;;3.23;1.90;;;;;;;9.90;86.11;99056.25;5082826;28;20549;-76
2021/05/16 00:48:51;;;;;;;2.30;2.13;;;;;;;9.89;86.04;99054.56;5081726;28;20232;-75
2021/05/16 00:51:18;;;;;;;2.10;1.90;;;;;;;9.94;85.92;99057.00;5081974;28;20217;-76
2021/05/16 00:53:45;;;;;;;4.50;2.47;;;;;;;9.91;86.43;99052.75;5082224;28;20210;-76
2021/05/16 00:56:11;;;;;;;2.37;2.27;;;;;;;9.97;86.14;99059.50;5082260;28;20890;-76
2021/05/16 00:58:37;;;;;;;6.50;2.27;;;;;;;9.97;86.50;99058.63;5082841;28;20226;-77
2021/05/16 01:01:07;;;;;;;2.33;2.13;;;;;;;9.97;86.27;99056.00;5082676;28;20209;-75
2021/05/16 01:03:33;;;;;;;2.53;2.27;;;;;;;9.94;86.89;99052.63;5081707;28;20211;-76
2021/05/16 01:05:59;;;;;;;11.37;2.13;;;;;;;9.97;86.71;99056.88;5082794;28;20721;-74
2021/05/16 01:08:25;;;;;;;3.97;2.20;;;;;;;10.01;86.80;99053.25;5082469;28;20231;-76
2021/05/16 01:10:52;;;;;;;1.97;1.77;;;;;;;10.07;86.49;99057.38;5081992;28;20638;-75
2021/05/16 01:13:18;;;;;;;2.47;2.37;;;;;;;10.05;86.73;99049.63;5082499;28;20250;-76
2021/05/16 01:15:45;;;;;;;2.23;2.13;;;;;;;10.11;86.87;99056.34;5082224;28;20589;-76
2021/05/16 01:18:12;;;;;;;2.20;2.00;;;;;;;10.17;87.33;99050.00;5081957;28;20227;-76
2021/05/16 01:20:40;;;;;;;1.90;1.80;;;;;;;10.19;86.88;99048.19;5081778;28;20234;-74
2021/05/16 01:23:09;;;;;;;2.13;1.80;;;;;;;10.24;87.01;99046.25;5082302;28;20215;-77
2021/05/16 01:25:38;;;;;;;1.83;1.73;;;;;;;10.25;86.55;99048.81;5082360;28;20205;-76
2021/05/16 01:28:06;;;;;;;1.73;1.57;;;;;;;10.25;86.27;99047.97;5082200;28;20276;-75
2021/05/16 01:30:33;;;;;;;1.97;1.70;;;;;;;10.30;86.08;99048.66;5082849;28;20288;-77
2021/05/16 01:32:59;;;;;;;2.20;2.10;;;;;;;10.32;86.64;99052.88;5081122;28;20206;-74
2021/05/16 01:35:25;;;;;;;2.20;2.00;;;;;;;10.36;86.22;99047.56;5082960;28;20238;-76
2021/05/16 01:37:51;;;;;;;1.93;1.83;;;;;;;10.36;86.05;99050.19;5081857;28;20233;-76
2021/05/16 01:40:20;;;;;;;2.10;1.93;;;;;;;10.36;86.11;99050.19;5081933;28;20229;-74
2021/05/16 01:42:48;;;;;;;1.70;1.60;;;;;;;10.30;86.32;99051.25;5081921;28;20233;-74
2021/05/16 01:45:16;;;;;;;1.90;1.80;;;;;;;10.30;86.55;99052.09;5082101;28;20311;-76
2021/05/16 01:47:42;;;;;;;2.43;1.83;;;;;;;10.30;86.60;99051.25;5086012;28;20296;-77
2021/05/16 01:50:10;;;;;;;2.00;1.80;;;;;;;10.30;86.26;99052.09;5085218;28;20209;-76
2021/05/16 01:52:38;;;;;;;1.87;1.77;;;;;;;10.37;85.98;99050.13;5085810;28;20238;-73
2021/05/16 01:55:05;;;;;;;1.60;1.50;;;;;;;10.33;86.01;99059.81;5085808;28;20218;-74
2021/05/16 01:57:32;;;;;;;2.23;1.80;;;;;;;10.31;86.43;99059.03;5085635;28;20287;-75
2021/05/16 01:59:59;;;;;;;1.80;1.70;;;;;;;10.30;85.93;99051.25;5086330;28;20286;-77
2021/05/16 02:02:26;;;;;;;2.13;2.00;;;;;;;10.30;86.47;99066.91;5085138;28;20204;-74
2021/05/16 02:04:53;;;;;;;2.27;2.07;;;;;;;10.28;86.46;99064.31;5085500;28;20282;-76
2021/05/16 02:07:19;;;;;;;2.20;2.00;;;;;;;10.28;86.54;99063.50;5085408;28;20224;-76
2021/05/16 02:09:45;;;;;;;1.97;1.83;;;;;;;10.33;86.33;99061.59;5085593;28;20222;-74
2021/05/16 02:12:11;;;;;;;1.97;1.80;;;;;;;10.28;86.40;99059.13;5085910;28;20217;-76
2021/05/16 02:14:38;;;;;;;2.77;1.80;;;;;;;10.17;86.12;99056.09;5084862;28;20656;-77
2021/05/16 02:17:05;;;;;;;2.70;2.00;;;;;;;10.15;86.73;99065.75;5085819;28;20812;-74
2021/05/16 02:19:31;;;;;;;3.70;1.83;;;;;;;10.13;86.50;99055.38;5084532;28;20228;-75
2021/05/16 02:21:57;;;;;;;2.60;2.07;;;;;;;10.12;86.71;99053.66;5085291;28;20212;-76
2021/05/16 02:24:23;;;;;;;1.83;1.73;;;;;;;10.09;86.53;99066.00;5084840;28;20612;-74
2021/05/16 02:26:49;;;;;;;1.93;1.83;;;;;;;10.10;86.49;99062.47;5085375;28;20212;-76
2021/05/16 02:29:16;;;;;;;2.00;1.80;;;;;;;10.04;86.48;99062.69;5085138;28;20775;-76
2021/05/16 02:31:42;;;;;;;2.97;2.00;;;;;;;10.03;86.30;99055.78;5084515;28;21059;-76
2021/05/16 02:34:09;;;;;;;1.97;1.87;;;;;;;9.98;86.29;99061.19;5084450;28;20440;-76
2021/05/16 02:36:35;;;;;;;3.80;1.97;;;;;;;9.94;86.16;99063.03;5084750;28;20203;-76
2021/05/16 02:39:03;;;;;;;2.83;1.90;;;;;;;9.86;86.25;99064.25;5084990;28;20282;-75
2021/05/16 02:41:28;;;;;;;2.17;1.97;;;;;;;9.83;86.44;99062.63;5085350;28;20249;-77
2021/05/16 02:43:54;;;;;;;3.27;2.10;;;;;;;9.78;86.61;99061.94;5084334;28;20235;-77
2021/05/16 02:46:20;;;;;;;2.00;1.90;;;;;;;9.80;86.17;99067.09;5085205;28;20221;-76
2021/05/16 02:48:47;;;;;;;3.43;2.07;;;;;;;9.73;86.52;99069.06;5084077;28;20227;-76
2021/05/16 02:51:13;;;;;;;2.87;1.90;;;;;;;9.73;86.38;99064.72;5084607;28;20728;-74
2021/05/16 02:53:39;;;;;;;3.03;2.27;;;;;;;9.72;86.34;99072.59;5084589;28;20211;-75
2021/05/16 02:56:05;;;;;;;2.43;2.17;;;;;;;9.75;85.99;99075.06;5084841;28;20213;-76
2021/05/16 02:58:31;;;;;;;5.70;2.37;;;;;;;9.74;86.27;99076.84;5084782;28;20601;-75
2021/05/16 03:00:57;;;;;;;2.77;2.10;;;;;;;9.77;86.33;99068.03;5084497;28;20237;-76
2021/05/16 03:03:22;;;;;;;3.03;2.80;;;;;;;9.80;86.37;99065.34;5083219;28;20204;-76
2021/05/16 03:05:49;;;;;;;3.87;2.40;;;;;;;9.86;86.38;99072.06;5084985;28;20563;-77
2021/05/16 03:08:15;;;;;;;3.80;2.70;;;;;;;9.89;86.00;99075.44;5084501;28;20271;-77
2021/05/16 03:10:41;;;;;;;2.60;2.40;;;;;;;9.97;86.13;99077.75;5084381;28;20205;-74
2021/05/16 03:13:07;;;;;;;3.17;2.40;;;;;;;9.99;85.93;99085.47;5083930;28;20286;-77
2021/05/16 03:15:33;;;;;;;4.03;2.97;;;;;;;9.98;86.23;99079.41;5084483;28;20204;-76
2021/05/16 03:17:59;;;;;;;3.67;2.70;;;;;;;9.96;85.90;99072.56;5084067;28;20759;-74
2021/05/16 03:20:25;;;;;;;3.23;2.50;;;;;;;10.01;86.24;99079.31;5083900;28;20256;-76
2021/05/16 03:22:52;;;;;;;3.77;2.53;;;;;;;10.02;85.98;99080.16;5083717;28;20206;-75
2021/05/16 03:25:18;;;;;;;4.40;3.10;;;;;;;9.97;86.26;99082.94;5083721;28;20204;-77
2021/05/16 03:27:44;;;;;;;3.40;3.07;;;;;;;9.87;85.79;99085.06;5083874;28;20280;-76
2021/05/16 03:30:11;;;;;;;4.23;3.20;;;;;;;9.84;85.84;99092.13;5084350;28;20799;-74
2021/05/16 03:32:40;;;;;;;3.80;3.50;;;;;;;9.87;85.79;99092.88;5083025;28;20226;-73
2021/05/16 03:35:08;;;;;;;3.73;3.20;;;;;;;9.90;86.64;99092.75;5084172;28;20205;-75
2021/05/16 03:37:33;;;;;;;4.20;3.37;;;;;;;9.94;86.51;99093.47;5084000;28;20205;-76
2021/05/16 03:40:00;;;;;;;6.77;3.30;;;;;;;9.95;86.24;99095.19;5083697;28;21137;-75
2021/05/16 03:42:26;;;;;;;3.97;3.50;;;;;;;10.01;86.65;99097.56;5084430;28;20680;-77
2021/05/16 03:44:55;;;;;;;6.13;3.17;;;;;;;10.04;86.50;99096.59;5083098;28;21363;-75
2021/05/16 03:47:21;;;;;;;3.70;3.40;;;;;;;10.07;86.38;99091.28;5083900;28;20281;-77
2021/05/16 03:49:47;;;;;;;5.07;3.47;;;;;;;10.12;86.33;99094.53;5083001;28;20283;-74
2021/05/16 03:52:13;;;;;;;3.17;2.70;;;;;;;10.15;86.13;99097.03;5083476;28;20243;-76
2021/05/16 03:54:40;;;;;;;3.43;3.13;;;;;;;10.19;85.99;99100.34;5083702;28;20208;-74
2021/05/16 03:57:07;;;;;;;3.50;3.00;;;;;;;10.22;85.70;99097.63;5083453;28;20202;-74
2021/05/16 03:59:33;;;;;;;3.60;3.27;;;;;;;10.21;86.19;99091.56;5083627;28;20641;-77
2021/05/16 04:01:59;;;;;;;8.03;3.10;;;;;;;10.22;86.10;99101.09;5083258;28;20205;-76
2021/05/16 04:04:25;;;;;;;3.80;3.40;;;;;;;10.15;85.73;99099.66;5083439;28;21366;-76
2021/05/16 04:06:51;;;;;;;3.53;3.33;;;;;;;10.19;85.47;99093.41;5083413;28;20701;-76
2021/05/16 04:09:17;;;;;;;3.87;3.53;;;;;;;10.12;86.29;99097.97;5082668;28;20254;-74
2021/05/16 04:11:43;;;;;;;4.10;3.57;;;;;;;10.18;85.84;99093.44;5083464;28;20226;-76
2021/05/16 04:14:09;;;;;;;3.50;3.30;;;;;;;10.17;85.86;99091.72;5082171;28;20242;-76
2021/05/16 04:16:35;;;;;;;4.43;3.43;;;;;;;10.16;86.02;99097.88;5083972;28;20208;-74
2021/05/16 04:19:01;;;;;;;4.97;3.63;;;;;;;10.17;85.35;99100.44;5082505;28;20371;-76
2021/05/16 04:21:27;;;;;;;4.97;3.57;;;;;;;10.21;85.28;99101.13;5082462;28;20360;-74
2021/05/16 04:23:53;;;;;;;4.37;3.80;;;;;;;10.24;86.12;99107.09;5082068;28;20210;-76
2021/05/16 04:26:18;;;;;;;4.23;3.70;;;;;;;10.28;86.37;99106.06;5081955;28;20229;-76
2021/05/16 04:28:44;;;;;;;3.83;3.40;;;;;;;10.32;85.55;99105.06;5082050;28;20243;-75
2021/05/16 04:31:11;;;;;;;3.43;3.00;;;;;;;10.32;85.51;99109.44;5082239;28;20728;-76
2021/05/16 04:33:37;;;;;;;3.53;3.23;;;;;;;10.38;85.17;99100.53;5081601;28;20262;-76
2021/05/16 04:36:03;;;;;;;4.90;3.37;;;;;;;10.36;85.76;99102.34;5081605;28;20568;-76
2021/05/16 04:38:30;;;;;;;4.03;3.70;;;;;;;10.38;85.68;99106.56;5082382;28;20267;-76
2021/05/16 04:40:56;;;;;;;3.77;3.20;;;;;;;10.44;85.50;99106.31;5082053;28;20229;-76
2021/05/16 04:43:22;;;;;;;4.87;2.83;;;;;;;10.49;84.88;99103.56;5081716;28;20212;-76
2021/05/16 04:45:48;;;;;;;3.77;3.03;;;;;;;10.50;84.88;99106.13;5081653;28;20207;-76
2021/05/16 04:48:15;;;;;;;3.97;2.80;;;;;;;10.52;84.75;99106.91;5082126;28;20400;-76
2021/05/16 04:50:41;;;;;;;7.67;3.47;;;;;;;10.55;84.41;99102.47;5081893;28;20210;-76
2021/05/16 04:53:07;;;;;;;3.63;3.13;;;;;;;10.59;83.92;99102.28;5081443;28;20282;-75
2021/05/16 04:55:33;;;;;;;4.83;3.43;;;;;;;10.67;84.25;99100.19;5081812;28;20219;-75
2021/05/16 04:57:58;;;;;;;3.47;3.13;;;;;;;10.66;84.59;99111.56;5081366;28;20324;-76
2021/05/16 05:00:25;;;;;;;4.63;3.90;;;;;;;10.64;84.36;99110.75;5082065;28;20322;-73
2021/05/16 05:02:50;;;;;;;4.13;3.73;;;;;;;10.69;84.29;99107.97;5081682;28;20213;-74
2021/05/16 05:05:18;;;;;;;3.97;3.50;;;;;;;10.70;84.14;99109.66;5081333;28;20200;-77
2021/05/16 05:07:44;;;;;;;4.17;3.77;;;;;;;10.60;83.38;99108.31;5081580;28;20213;-73
2021/05/16 05:10:11;;;;;;;5.10;3.70;;;;;;;10.61;83.88;99107.44;5081844;28;20211;-77
2021/05/16 05:12:37;;;;;;;4.47;3.30;;;;;;;10.65;83.69;99117.69;5081149;28;20209;-75
2021/05/16 05:15:03;;;;;;;4.07;3.50;;;;;;;10.62;82.75;99120.41;5081197;28;20213;-76
2021/05/16 05:17:29;;;;;;;5.60;3.93;;;;;;;10.56;83.64;99119.81;5081913;28;20246;-76
2021/05/16 05:19:55;;;;;;;6.40;3.50;;;;;;;10.58;82.75;99117.97;5081141;28;20235;-76
2021/05/16 05:22:22;;;;;;;9.37;3.73;;;;;;;10.53;82.56;99123.41;5085403;28;20200;-75
2021/05/16 05:24:48;;;;;;;4.83;4.13;;;;;;;10.62;83.45;99111.72;5085405;28;20214;-76
2021/05/16 05:27:14;;;;;;;3.80;3.50;;;;;;;10.68;83.14;99117.56;5085962;28;20200;-76
2021/05/16 05:29:39;;;;;;;6.97;3.63;;;;;;;10.74;82.50;99113.81;5086013;28;20315;-76
2021/05/16 05:32:06;;;;;;;7.53;3.90;;;;;;;10.79;83.10;99103.22;5085639;28;20297;-76
2021/05/16 05:34:31;;;;;;;4.17;3.67;;;;;;;10.82;83.09;99109.16;5084952;28;20570;-77
2021/05/16 05:36:57;;;;;;;6.10;3.37;;;;;;;10.92;82.66;99112.22;5086016;28;20707;-77
2021/05/16 05:39:24;;;;;;;4.97;3.20;;;;;;;10.83;81.58;99107.41;5085099;28;20231;-76
2021/05/16 05:41:50;;;;;;;6.23;3.00;;;;;;;10.64;81.07;99112.50;5085476;28;20212;-75
2021/05/16 05:44:16;;;;;;;6.33;3.40;;;;;;;10.71;81.69;99116.59;5085410;28;20233;-77
2021/05/16 05:46:42;;;;;;;4.20;3.47;;;;;;;10.85;81.59;99116.03;5085237;28;20211;-74
2021/05/16 05:49:08;;;;;;;5.57;3.57;;;;;;;10.81;80.84;99117.06;5084990;28;20274;-77
2021/05/16 05:51:34;;;;;;;5.30;3.13;;;;;;;10.85;81.26;99110.78;5084987;28;20203;-76
2021/05/16 05:54:00;;;;;;;4.83;3.30;;;;;;;10.87;81.80;99115.03;5085033;28;20341;-75
2021/05/16 05:56:27;;;;;;;5.33;4.00;;;;;;;10.96;82.08;99115.56;5084995;28;20302;-77
2021/05/16 05:58:53;;;;;;;4.50;3.00;;;;;;;10.99;81.97;99115.44;5085296;28;20223;-76
2021/05/16 06:01:18;;;;;;;4.63;2.90;;;;;;;10.90;80.80;99109.69;5085173;28;20981;-77
2021/05/16 06:03:46;;;;;;;6.00;3.23;;;;;;;10.89;80.65;99110.59;5084503;28;20320;-75
2021/05/16 06:06:12;;;;;;;3.47;2.60;;;;;;;11.02;81.15;99113.56;5084958;28;20679;-76
2021/05/16 06:08:38;;;;;;;4.53;2.97;;;;;;;11.10;80.15;99108.00;5084532;28;20232;-74
2021/05/16 06:11:04;;;;;;;3.57;3.10;;;;;;;11.12;81.02;99104.41;5085208;28;20205;-76
2021/05/16 06:13:31;;;;;;;5.33;3.40;;;;;;;10.98;80.86;99117.22;5083950;28;20532;-74
2021/05/16 06:15:57;;;;;;;6.67;3.10;;;;;;;10.81;80.94;99111.84;5083535;28;20306;-77
2021/05/16 06:18:23;;;;;;;2.93;2.63;;;;;;;10.84;81.37;99114.31;5083005;28;20260;-75
2021/05/16 06:20:49;;;;;;;3.90;2.70;;;;;;;10.84;80.85;99112.56;5083164;28;20229;-75
2021/05/16 06:23:17;;;;;;;3.37;2.60;;;;;;;10.95;80.51;99122.56;5084250;28;20671;-76
2021/05/16 06:25:43;;;;;;;3.13;2.80;;;;;;;10.95;80.12;99119.09;5083124;28;20703;-76
2021/05/16 06:28:09;;;;;;;5.03;3.00;;;;;;;10.91;80.50;99118.38;5084449;28;20233;-74
2021/05/16 06:30:35;;;;;;;4.97;2.70;;;;;;;10.97;79.38;99114.66;5083966;28;20204;-76
2021/05/16 06:33:01;;;;;;;3.43;2.60;;;;;;;11.11;79.52;99117.53;5083423;28;20204;-75
2021/05/16 06:35:27;;;;;;;5.20;2.80;;;;;;;11.13;78.46;99116.53;5083610;28;20295;-75
2021/05/16 06:37:53;;;;;;;4.90;3.27;;;;;;;11.26;78.93;99126.50;5083972;28;20232;-76
2021/05/16 06:40:19;;;;;;;4.67;2.47;;;;;;;11.32;78.49;99128.84;5084232;28;20223;-75
2021/05/16 06:42:46;;;;;;;3.40;2.83;;;;;;;11.32;77.47;99124.44;5083024;28;20670;-76
2021/05/16 06:45:12;;;;;;;4.23;2.50;;;;;;;11.40;78.82;99129.34;5083642;28;20204;-76
2021/05/16 06:47:39;;;;;;;6.93;3.13;;;;;;;11.51;79.06;99131.47;5083892;28;20301;-75
2021/05/16 06:50:07;;;;;;;5.67;2.60;;;;;;;11.56;77.83;99126.06;5082975;28;20211;-76
2021/05/16 06:52:33;;;;;;;7.37;3.20;;;;;;;11.68;77.57;99123.75;5084070;28;20249;-78
2021/05/16 06:54:59;;;;;;;6.10;2.77;;;;;;;11.53;75.93;99129.66;5083307;28;20263;-77
2021/05/16 06:57:25;;;;;;;6.60;2.80;;;;;;;11.47;75.85;99128.16;5084223;28;20618;-76
2021/05/16 06:59:50;;;;;;;5.03;2.63;;;;;;;11.76;78.46;99123.41;5083686;28;20244;-76
2021/05/16 07:02:16;;;;;;;5.20;2.60;;;;;;;11.75;74.60;99128.69;5082848;28;20262;-75
2021/05/16 07:04:44;;;;;;;5.13;2.73;;;;;;;11.88;75.42;99129.84;5083321;28;20213;-78
2021/05/16 07:07:10;;;;;;;4.83;2.50;;;;;;;12.00;74.96;99128.47;5082704;28;20228;-77
2021/05/16 07:09:36;;;;;;;6.40;2.87;;;;;;;12.15;75.33;99130.38;5083942;28;20317;-77
2021/05/16 07:12:02;;;;;;;5.80;2.77;;;;;;;12.00;75.07;99126.69;5083727;28;20219;-77
2021/05/16 07:14:27;;;;;;;11.23;2.90;;;;;;;11.97;74.72;99133.81;5065492;28;520019;-76
2021/05/16 07:16:53;;;;;;;7.83;3.37;;;;;;;12.12;74.83;99133.13;5084711;28;20212;-78
2021/05/16 07:19:19;;;;;;;7.20;2.83;;;;;;;12.05;73.94;99126.47;5083384;28;20230;-76
2021/05/16 07:21:46;;;;;;;7.97;2.93;;;;;;;12.24;75.35;99129.09;5083929;28;20219;-75
2021/05/16 07:24:12;;;;;;;8.43;2.70;;;;;;;12.23;74.01;99132.63;5084153;28;20667;-77
2021/05/16 07:26:38;;;;;;;7.53;3.00;;;;;;;12.01;73.15;99136.25;5084058;28;20220;-76
2021/05/16 07:29:04;;;;;;;5.37;2.57;;;;;;;12.05;74.63;99131.72;5084077;28;20649;-75
2021/05/16 07:31:30;;;;;;;7.83;3.50;;;;;;;12.10;74.42;99127.97;5083989;28;20212;-77
2021/05/16 07:33:56;;;;;;;10.13;3.00;;;;;;;12.28;74.26;99131.50;5083096;28;20206;-76
2021/05/16 07:36:22;;;;;;;5.27;2.70;;;;;;;12.17;73.04;99133.78;5084296;28;20212;-77
2021/05/16 07:38:48;;;;;;;5.33;2.90;;;;;;;12.31;74.66;99140.97;5083525;28;20232;-77
2021/05/16 07:41:14;;;;;;;8.73;2.87;;;;;;;12.23;71.53;99136.09;5084393;28;20319;-75
2021/05/16 07:43:41;;;;;;;6.93;3.10;;;;;;;12.31;72.96;99139.22;5082602;28;20218;-77
2021/05/16 07:46:07;;;;;;;6.27;3.27;;;;;;;12.48;73.40;99141.00;5084027;28;20207;-77
2021/05/16 07:48:33;;;;;;;9.57;3.20;;;;;;;12.64;73.92;99135.03;5083324;28;20281;-74
2021/05/16 07:51:01;;;;;;;8.57;2.93;;;;;;;12.84;73.32;99131.44;5083839;28;20574;-77
2021/05/16 07:53:28;;;;;;;6.57;2.77;;;;;;;12.62;70.42;99144.75;5083797;28;20209;-77
2021/05/16 07:55:55;;;;;;;7.30;2.53;;;;;;;12.65;71.31;99136.75;5083466;28;20320;-76
2021/05/16 07:58:21;;;;;;;7.73;2.43;;;;;;;12.55;71.84;99135.47;5084095;28;20722;-77
2021/05/16 08:00:47;;;;;;;8.93;3.20;;;;;;;12.51;70.88;99135.66;5083242;28;20260;-76
2021/05/16 08:03:13;;;;;;;8.47;2.83;;;;;;;12.61;71.03;99137.81;5082365;28;20208;-75
2021/05/16 08:05:39;;;;;;;12.43;3.37;;;;;;;12.66;72.36;99141.91;5083817;28;20229;-77
2021/05/16 08:08:05;;;;;;;7.70;2.10;;;;;;;12.63;71.39;99135.97;5082862;28;20228;-77
2021/05/16 08:10:31;;;;;;;8.10;2.17;;;;;;;12.41;71.03;99142.25;5084210;28;20204;-75
2021/05/16 08:12:58;;;;;;;7.77;2.20;;;;;;;12.34;71.66;99135.59;5082772;28;20228;-76
2021/05/16 08:15:25;;;;;;;9.60;2.90;;;;;;;12.46;72.66;99134.16;5082914;28;20236;-77
2021/05/16 08:17:51;;;;;;;7.60;2.33;;;;;;;12.17;73.03;99144.25;5082640;28;20215;-74
2021/05/16 08:20:18;;;;;;;6.23;2.53;;;;;;;12.29;75.20;99135.81;5082719;28;20788;-77
2021/05/16 08:22:44;;;;;;;10.10;2.50;;;;;;;12.14;74.83;99146.16;5083198;28;20236;-76
2021/05/16 08:25:12;;;;;;;8.00;3.03;;;;;;;12.18;74.48;99140.69;5083077;28;20215;-74
2021/05/16 08:27:39;;;;;;;8.30;2.63;;;;;;;12.22;74.95;99141.41;5083095;28;20732;-76
2021/05/16 08:30:08;;;;;;;7.77;2.80;;;;;;;12.19;74.47;99147.63;5082847;28;20232;-77
2021/05/16 08:32:34;;;;;;;5.90;2.50;;;;;;;12.33;75.09;99141.75;5081772;28;20204;-76
2021/05/16 08:35:00;;;;;;;9.50;2.43;;;;;;;12.20;73.04;99151.94;5083133;28;20210;-73
2021/05/16 08:37:25;;;;;;;8.27;2.50;;;;;;;12.44;74.58;99139.47;5079891;28;20587;-77
2021/05/16 08:39:51;;;;;;;11.53;3.50;;;;;;;12.69;76.01;99146.16;5081666;28;20228;-76
2021/05/16 08:42:18;;;;;;;8.30;2.50;;;;;;;12.97;76.45;99142.19;5082748;28;20771;-76
2021/05/16 08:44:44;;;;;;;6.47;2.00;;;;;;;13.12;75.48;99136.16;5081213;28;20260;-76
2021/05/16 08:47:11;;;;;;;9.70;3.23;;;;;;;13.34;73.19;99138.59;5082108;28;20216;-76
2021/05/16 08:49:37;;;;;;;7.83;2.37;;;;;;;13.33;69.72;99136.03;5081837;28;20255;-75
2021/05/16 08:52:03;;;;;;;6.43;2.27;;;;;;;13.53;71.20;99140.25;5082089;28;20242;-76
2021/05/16 08:54:29;;;;;;;6.30;1.77;;;;;;;13.49;69.10;99132.53;5081909;28;20205;-76
2021/05/16 08:56:56;;;;;;;6.30;2.40;;;;;;;13.50;68.23;99130.78;5081580;28;20210;-75
2021/05/16 08:59:23;;;;;;;6.40;2.00;;;;;;;13.55;67.48;99128.75;5081757;28;20226;-75
2021/05/16 09:01:51;;;;;;;5.90;2.20;;;;;;;13.75;69.57;99127.69;5081474;28;20247;-74
2021/05/16 09:04:28;;;;;;;5.83;2.10;;;;;;;13.65;66.25;99129.97;5080468;28;20234;-76
2021/05/16 09:06:56;;;;;;;5.67;1.93;;;;;;;13.77;67.75;99120.59;5080693;28;20214;-75
2021/05/16 09:09:27;;;;;;;8.53;2.73;;;;;;;13.68;63.64;99126.34;5082005;28;20284;-76
2021/05/16 09:11:57;;;;;;;8.43;2.00;;;;;;;13.75;68.05;99127.69;5081259;28;20297;-76
2021/05/16 09:14:43;;;;;;;4.80;1.67;;;;;;;13.81;67.19;99122.13;5081454;28;20213;-76
2021/05/16 09:17:26;;;;;;;4.93;1.80;;;;;;;13.72;65.96;99127.03;5081303;28;20201;-77
2021/05/16 09:19:54;;;;;;;4.03;2.10;;;;;;;13.31;63.67;99131.72;5081515;28;20315;-75
2021/05/16 09:22:34;;;;;;;6.27;1.90;;;;;;;13.45;65.63;99124.91;5080420;28;20239;-75
2021/05/16 09:25:15;;;;;;;8.17;2.43;;;;;;;13.73;67.64;99131.34;5081237;28;20332;-76
2021/05/16 09:27:42;;;;;;;6.50;2.23;;;;;;;13.81;66.89;99129.16;5081638;28;20209;-75
2021/05/16 09:30:27;;;;;;;5.87;1.97;;;;;;;13.83;65.88;99128.13;5081402;28;20233;-75
2021/05/16 09:32:54;;;;;;;6.23;2.00;;;;;;;13.92;66.33;99125.97;5080876;28;20259;-75
2021/05/16 09:35:26;;;;;;;7.13;2.13;;;;;;;14.04;62.61;99118.25;5080777;28;20634;-76
2021/05/16 09:38:04;;;;;;;6.40;1.90;;;;;;;13.98;62.11;99112.53;5081479;28;20224;-74
2021/05/16 09:40:31;;;;;;;4.87;1.37;;;;;;;13.82;62.13;99115.13;5080864;28;20299;-75
2021/05/16 09:43:18;;;;;;;9.67;1.80;;;;;;;13.67;63.11;99114.97;5081328;28;20210;-74
2021/05/16 09:45:49;;;;;;;5.90;1.80;;;;;;;13.47;64.80;99121.28;5081364;28;20292;-74
2021/05/16 09:48:32;;;;;;;3.80;1.30;;;;;;;13.51;63.57;99125.44;5081771;28;20228;-75
2021/05/16 09:51:15;;;;;;;7.77;1.90;;;;;;;13.72;66.72;99127.88;5079493;28;21404;-75
2021/05/16 09:53:53;;;;;;;4.40;1.43;;;;;;;13.72;63.39;99129.66;5079530;28;20679;-76
2021/05/16 09:56:21;;;;;;;6.63;1.53;;;;;;;13.64;63.53;99133.53;5079969;28;20208;-75
2021/05/16 09:58:47;;;;;;;6.17;1.97;;;;;;;13.90;66.00;99129.50;5081305;28;20226;-75
2021/05/16 10:01:14;;;;;;;6.97;1.77;;;;;;;13.86;64.96;99127.13;5079510;28;20320;-75
2021/05/16 10:03:41;;;;;;;6.13;1.53;;;;;;;13.70;65.47;99120.09;5080477;28;20206;-76
2021/05/16 10:06:07;;;;;;;7.07;1.70;;;;;;;13.66;66.15;99121.19;5080985;28;20202;-74
2021/05/16 10:08:35;;;;;;;3.20;1.50;;;;;;;13.84;64.20;99118.50;5084207;28;20226;-75
2021/05/16 10:11:01;;;;;;;4.30;1.77;;;;;;;14.09;64.04;99110.13;5085010;28;20217;-75
2021/05/16 10:13:31;;;;;;;5.53;2.07;;;;;;;14.35;63.81;99103.47;5084517;28;20217;-75
2021/05/16 10:15:59;;;;;;;4.77;1.87;;;;;;;14.52;61.08;99101.66;5085277;28;20698;-75
2021/05/16 10:18:27;;;;;;;2.97;1.30;;;;;;;14.77;61.72;99099.34;5084508;28;20245;-76
2021/05/16 10:20:53;;;;;;;3.90;1.57;;;;;;;14.76;59.43;99107.31;5084379;28;20228;-75
2021/05/16 10:23:33;;;;;;;5.80;1.70;;;;;;;14.81;60.13;99110.53;5084537;28;20217;-75
2021/05/16 10:26:23;;;;;;;6.97;1.80;;;;;;;15.06;60.90;99105.53;5084705;28;20237;-74
2021/05/16 10:29:00;;;;;;;6.57;1.47;;;;;;;14.95;57.24;99107.94;5084097;28;20229;-74
2021/05/16 10:31:51;;;;;;;5.47;1.80;;;;;;;15.01;57.88;99109.38;5084432;28;20199;-76
2021/05/16 10:34:43;;;;;;;3.53;1.27;;;;;;;15.03;58.86;99099.63;5084597;28;20207;-76
2021/05/16 10:37:13;;;;;;;5.80;1.70;;;;;;;14.48;58.25;99106.22;5084989;28;20356;-76
2021/05/16 10:39:56;;;;;;;4.73;1.33;;;;;;;14.29;60.63;99101.16;5084230;28;20313;-76
2021/05/16 10:42:32;;;;;;;5.17;1.27;;;;;;;14.48;61.87;99090.47;5084947;28;20209;-76
2021/05/16 10:45:02;;;;;;;1.03;0.67;;;;;;;14.33;58.26;99092.22;5084329;28;20249;-76
2021/05/16 10:47:57;;;;;;;4.40;0.80;;;;;;;14.40;57.92;99084.81;5084508;28;20290;-75
2021/05/16 10:50:54;;;;;;;3.30;1.00;;;;;;;14.50;55.91;99083.38;5083732;28;20210;-76
2021/05/16 10:53:29;;;;;;;2.77;0.80;;;;;;;14.62;57.43;99081.84;5084109;28;20222;-76
2021/05/16 10:56:06;;;;;;;1.73;0.80;;;;;;;14.61;58.37;99081.00;5084539;28;20207;-76
2021/05/16 10:58:48;;;;;;;4.53;1.30;;;;;;;14.28;61.23;99066.19;5083856;28;20645;-75
2021/05/16 11:01:15;;;;;;;3.47;1.10;;;;;;;14.44;60.27;99066.16;5084020;28;20659;-76
2021/05/16 11:03:43;;;;;;;3.93;1.43;;;;;;;14.50;61.75;99067.59;5083764;28;20218;-75
2021/05/16 11:06:09;;;;;;;4.27;1.47;;;;;;;14.63;60.26;99062.53;5083456;28;21263;-76
2021/05/16 11:09:13;;;;;;;6.73;1.90;;;;;;;14.54;62.63;99066.50;5083910;28;20218;-76
2021/05/16 11:11:42;;;;;;;4.23;1.47;;;;;;;14.77;61.68;99059.94;5084078;28;20204;-76
2021/05/16 11:14:19;;;;;;;4.03;1.33;;;;;;;14.97;60.71;99048.25;5083570;28;20221;-74
2021/05/16 11:16:47;;;;;;;4.60;1.50;;;;;;;15.26;60.03;99051.78;5084124;28;20267;-73
2021/05/16 11:19:13;;;;;;;3.70;1.30;;;;;;;15.49;59.94;99052.16;5082285;28;20238;-74
2021/05/16 11:21:40;;;;;;;2.53;1.53;;;;;;;15.51;57.09;99052.06;5083597;28;20234;-75
2021/05/16 11:24:07;;;;;;;2.80;1.00;;;;;;;15.68;58.02;99044.81;5083196;28;20213;-75
2021/05/16 11:26:33;;;;;;;5.93;1.60;;;;;;;15.75;55.87;99042.66;5084118;28;20277;-77
2021/05/16 11:29:00;;;;;;;4.20;1.53;;;;;;;15.57;55.73;99042.00;5083673;28;20233;-77
2021/05/16 11:31:28;;;;;;;2.20;1.03;;;;;;;15.78;56.85;99049.53;5083580;28;20991;-77
2021/05/16 11:33:56;;;;;;;2.93;1.30;;;;;;;15.76;57.32;99051.44;5083704;28;20211;-77
2021/05/16 11:36:24;;;;;;;3.63;1.27;;;;;;;15.78;57.83;99054.81;5084006;28;20196;-77